sensor_id;sensor_type;location;lat;lon;timestamp;pressure;altitude;pressure_sealevel;temperature;humidity
50250;BME280;36133;42.522;27.456;2023-03-04T00:01:30;101556.25;;;11.13;61.90
50250;BME280;36133;42.522;27.456;2023-03-04T00:03:55;101586.50;;;11.17;62.17
50250;BME280;36133;42.522;27.456;2023-03-04T00:06:21;101590.72;;;10.86;63.31
50250;BME280;36133;42.522;27.456;2023-03-04T00:08:46;101572.13;;;10.43;63.96
50250;BME280;36133;42.522;27.456;2023-03-04T00:11:12;101586.16;;;11.11;62.69
50250;BME280;36133;42.522;27.456;2023-03-04T00:13:37;101556.91;;;10.34;63.73
50250;BME280;36133;42.522;27.456;2023-03-04T00:16:03;101539.41;;;10.78;62.98
50250;BME280;36133;42.522;27.456;2023-03-04T00:18:28;101577.53;;;11.32;61.83
50250;BME280;36133;42.522;27.456;2023-03-04T00:20:54;101506.63;;;11.06;61.35
50250;BME280;36133;42.522;27.456;2023-03-04T00:23:19;101557.97;;;11.06;62.00
50250;BME280;36133;42.522;27.456;2023-03-04T00:25:45;101572.28;;;11.39;61.82
50250;BME280;36133;42.522;27.456;2023-03-04T00:28:10;101433.47;;;10.99;60.20
50250;BME280;36133;42.522;27.456;2023-03-04T00:30:36;101523.22;;;11.50;60.47
50250;BME280;36133;42.522;27.456;2023-03-04T00:33:01;101486.53;;;10.92;61.61
50250;BME280;36133;42.522;27.456;2023-03-04T00:35:27;101544.84;;;11.50;61.15
50250;BME280;36133;42.522;27.456;2023-03-04T00:37:52;101545.91;;;11.41;61.61
50250;BME280;36133;42.522;27.456;2023-03-04T00:40:18;101545.28;;;11.14;62.71
50250;BME280;36133;42.522;27.456;2023-03-04T00:42:43;101277.19;;;10.24;60.36
50250;BME280;36133;42.522;27.456;2023-03-04T00:45:09;101535.31;;;11.79;60.39
50250;BME280;36133;42.522;27.456;2023-03-04T00:47:35;101487.00;;;11.98;58.88
50250;BME280;36133;42.522;27.456;2023-03-04T00:50:00;101507.69;;;12.68;57.08
50250;BME280;36133;42.522;27.456;2023-03-04T00:52:26;101443.81;;;12.13;57.48
50250;BME280;36133;42.522;27.456;2023-03-04T00:54:51;101393.72;;;11.86;57.17
50250;BME280;36133;42.522;27.456;2023-03-04T00:57:17;101432.28;;;11.49;58.93
50250;BME280;36133;42.522;27.456;2023-03-04T00:59:42;101391.50;;;11.28;58.94
50250;BME280;36133;42.522;27.456;2023-03-04T01:02:09;101486.78;;;11.77;59.32
50250;BME280;36133;42.522;27.456;2023-03-04T01:04:35;101382.13;;;11.07;59.52
50250;BME280;36133;42.522;27.456;2023-03-04T01:07:01;101396.75;;;11.29;59.14
50250;BME280;36133;42.522;27.456;2023-03-04T01:09:26;101377.19;;;10.47;61.07
50250;BME280;36133;42.522;27.456;2023-03-04T01:11:52;101490.25;;;11.55;60.53
50250;BME280;36133;42.522;27.456;2023-03-04T01:14:17;101445.94;;;11.17;60.49
50250;BME280;36133;42.522;27.456;2023-03-04T01:16:43;101480.72;;;11.75;59.82
50250;BME280;36133;42.522;27.456;2023-03-04T01:19:09;101429.34;;;11.28;59.93
50250;BME280;36133;42.522;27.456;2023-03-04T01:21:34;101344.44;;;10.59;59.52
50250;BME280;36133;42.522;27.456;2023-03-04T01:24:00;101391.19;;;10.67;61.04
50250;BME280;36133;42.522;27.456;2023-03-04T01:26:25;101451.06;;;11.03;60.98
50250;BME280;36133;42.522;27.456;2023-03-04T01:28:51;101501.03;;;11.15;61.38
50250;BME280;36133;42.522;27.456;2023-03-04T01:31:16;101433.31;;;11.01;60.48
50250;BME280;36133;42.522;27.456;2023-03-04T01:33:42;101330.31;;;10.24;60.98
50250;BME280;36133;42.522;27.456;2023-03-04T01:36:07;101323.72;;;10.10;60.91
50250;BME280;36133;42.522;27.456;2023-03-04T01:38:33;101451.44;;;10.51;62.02
50250;BME280;36133;42.522;27.456;2023-03-04T01:40:58;101493.63;;;10.93;61.90
50250;BME280;36133;42.522;27.456;2023-03-04T01:43:29;101500.03;;;10.35;63.58
50250;BME280;36133;42.522;27.456;2023-03-04T01:45:55;101470.19;;;10.69;62.44
50250;BME280;36133;42.522;27.456;2023-03-04T01:48:31;101454.47;;;10.40;62.69
50250;BME280;36133;42.522;27.456;2023-03-04T01:50:59;101375.53;;;10.22;62.13
50250;BME280;36133;42.522;27.456;2023-03-04T01:53:28;101394.25;;;10.40;61.75
50250;BME280;36133;42.522;27.456;2023-03-04T01:55:55;101394.53;;;9.96;63.18
50250;BME280;36133;42.522;27.456;2023-03-04T01:58:25;101469.84;;;10.80;62.53
50250;BME280;36133;42.522;27.456;2023-03-04T02:00:52;101515.88;;;11.11;62.26
50250;BME280;36133;42.522;27.456;2023-03-04T02:03:18;101505.09;;;10.87;62.76
50250;BME280;36133;42.522;27.456;2023-03-04T02:05:47;101490.22;;;10.26;63.44
50250;BME280;36133;42.522;27.456;2023-03-04T02:08:14;101534.31;;;10.59;63.23
50250;BME280;36133;42.522;27.456;2023-03-04T02:10:41;101479.22;;;10.11;64.11
50250;BME280;36133;42.522;27.456;2023-03-04T02:13:08;101543.03;;;10.28;64.73
50250;BME280;36133;42.522;27.456;2023-03-04T02:15:34;101538.38;;;10.71;63.17
50250;BME280;36133;42.522;27.456;2023-03-04T02:18:00;101540.72;;;10.99;62.32
50250;BME280;36133;42.522;27.456;2023-03-04T02:25:46;101513.06;;;10.80;61.94
50250;BME280;36133;42.522;27.456;2023-03-04T02:28:13;101514.84;;;11.21;60.68
50250;BME280;36133;42.522;27.456;2023-03-04T02:30:39;101480.97;;;10.94;60.32
50250;BME280;36133;42.522;27.456;2023-03-04T02:33:05;101481.13;;;10.51;61.73
50250;BME280;36133;42.522;27.456;2023-03-04T02:35:31;101538.34;;;11.20;60.74
50250;BME280;36133;42.522;27.456;2023-03-04T02:37:56;101416.69;;;10.56;60.06
50250;BME280;36133;42.522;27.456;2023-03-04T02:40:26;101538.06;;;10.91;60.70
50250;BME280;36133;42.522;27.456;2023-03-04T02:42:54;101436.69;;;9.97;61.98
50250;BME280;36133;42.522;27.456;2023-03-04T02:48:03;101524.09;;;10.12;63.12
50250;BME280;36133;42.522;27.456;2023-03-04T02:50:32;101389.94;;;9.14;64.04
50250;BME280;36133;42.522;27.456;2023-03-04T02:52:58;101533.63;;;10.49;62.09
50250;BME280;36133;42.522;27.456;2023-03-04T02:55:24;101498.78;;;9.63;63.19
50250;BME280;36133;42.522;27.456;2023-03-04T02:57:49;101507.94;;;10.28;61.75
50250;BME280;36133;42.522;27.456;2023-03-04T03:00:15;101532.63;;;10.42;61.50
50250;BME280;36133;42.522;27.456;2023-03-04T03:02:40;101441.59;;;9.93;61.36
50250;BME280;36133;42.522;27.456;2023-03-04T03:05:06;101364.31;;;9.60;60.91
50250;BME280;36133;42.522;27.456;2023-03-04T03:07:32;101552.47;;;10.24;62.21
50250;BME280;36133;42.522;27.456;2023-03-04T03:09:59;101527.53;;;10.31;61.21
50250;BME280;36133;42.522;27.456;2023-03-04T03:12:25;101508.78;;;9.79;61.68
50250;BME280;36133;42.522;27.456;2023-03-04T03:14:51;101563.75;;;10.20;61.95
50250;BME280;36133;42.522;27.456;2023-03-04T03:17:16;101553.22;;;10.75;60.20
50250;BME280;36133;42.522;27.456;2023-03-04T03:19:42;101491.66;;;9.96;61.20
50250;BME280;36133;42.522;27.456;2023-03-04T03:22:07;101339.53;;;9.64;59.95
50250;BME280;36133;42.522;27.456;2023-03-04T03:24:33;101529.94;;;10.91;59.13
50250;BME280;36133;42.522;27.456;2023-03-04T03:26:58;101511.19;;;10.81;59.10
50250;BME280;36133;42.522;27.456;2023-03-04T03:29:24;101335.34;;;9.62;59.62
50250;BME280;36133;42.522;27.456;2023-03-04T03:31:49;101298.78;;;10.33;56.08
50250;BME280;36133;42.522;27.456;2023-03-04T03:34:14;101536.31;;;11.22;57.64
50250;BME280;36133;42.522;27.456;2023-03-04T03:36:40;101540.69;;;11.31;58.22
50250;BME280;36133;42.522;27.456;2023-03-04T03:39:05;101489.72;;;11.59;56.33
50250;BME280;36133;42.522;27.456;2023-03-04T03:41:31;101464.03;;;11.08;56.82
50250;BME280;36133;42.522;27.456;2023-03-04T03:43:56;101452.25;;;10.84;56.80
50250;BME280;36133;42.522;27.456;2023-03-04T03:46:22;101542.34;;;10.26;60.17
50250;BME280;36133;42.522;27.456;2023-03-04T03:48:47;101506.31;;;10.68;58.01
50250;BME280;36133;42.522;27.456;2023-03-04T03:51:14;101313.63;;;9.96;57.14
50250;BME280;36133;42.522;27.456;2023-03-04T03:53:39;101477.59;;;10.75;57.45
50250;BME280;36133;42.522;27.456;2023-03-04T03:56:05;101535.50;;;10.73;58.45
50250;BME280;36133;42.522;27.456;2023-03-04T03:58:31;101536.28;;;10.24;59.49
50250;BME280;36133;42.522;27.456;2023-03-04T04:00:56;101515.75;;;10.48;58.80
50250;BME280;36133;42.522;27.456;2023-03-04T04:03:22;101532.28;;;11.10;57.61
50250;BME280;36133;42.522;27.456;2023-03-04T04:05:47;101290.28;;;9.30;58.10
50250;BME280;36133;42.522;27.456;2023-03-04T04:08:14;101281.56;;;10.01;56.11
50250;BME280;36133;42.522;27.456;2023-03-04T04:10:42;101508.81;;;10.62;57.91
50250;BME280;36133;42.522;27.456;2023-03-04T04:13:09;101426.38;;;11.06;56.18
50250;BME280;36133;42.522;27.456;2023-03-04T04:15:35;101548.16;;;11.05;57.70
50250;BME280;36133;42.522;27.456;2023-03-04T04:18:03;101515.72;;;10.32;59.21
50250;BME280;36133;42.522;27.456;2023-03-04T04:20:29;101336.66;;;9.50;58.50
50250;BME280;36133;42.522;27.456;2023-03-04T04:22:54;101557.75;;;11.32;57.29
50250;BME280;36133;42.522;27.456;2023-03-04T04:25:20;101400.28;;;10.74;56.45
50250;BME280;36133;42.522;27.456;2023-03-04T04:27:46;101507.75;;;11.20;56.42
50250;BME280;36133;42.522;27.456;2023-03-04T04:30:11;101557.94;;;11.94;55.08
50250;BME280;36133;42.522;27.456;2023-03-04T04:32:37;101280.91;;;9.99;56.01
50250;BME280;36133;42.522;27.456;2023-03-04T04:35:02;101394.22;;;10.07;57.63
50250;BME280;36133;42.522;27.456;2023-03-04T04:37:28;101409.94;;;9.45;59.89
50250;BME280;36133;42.522;27.456;2023-03-04T04:39:54;101520.81;;;10.43;59.00
50250;BME280;36133;42.522;27.456;2023-03-04T04:42:20;101446.78;;;9.36;60.27
50250;BME280;36133;42.522;27.456;2023-03-04T04:44:46;101450.72;;;9.50;60.29
50250;BME280;36133;42.522;27.456;2023-03-04T04:47:11;101449.19;;;9.48;60.42
50250;BME280;36133;42.522;27.456;2023-03-04T04:49:37;101527.25;;;10.66;58.61
50250;BME280;36133;42.522;27.456;2023-03-04T04:52:02;101509.00;;;10.60;58.66
50250;BME280;36133;42.522;27.456;2023-03-04T04:54:28;101441.28;;;10.13;58.16
50250;BME280;36133;42.522;27.456;2023-03-04T04:56:54;101419.78;;;9.71;59.31
50250;BME280;36133;42.522;27.456;2023-03-04T04:59:19;101546.78;;;10.44;59.29
50250;BME280;36133;42.522;27.456;2023-03-04T05:01:45;101305.03;;;9.01;59.63
50250;BME280;36133;42.522;27.456;2023-03-04T05:04:10;101290.16;;;9.64;57.64
50250;BME280;36133;42.522;27.456;2023-03-04T05:06:36;101471.53;;;11.45;55.73
50250;BME280;36133;42.522;27.456;2023-03-04T05:09:01;101566.28;;;11.60;56.70
50250;BME280;36133;42.522;27.456;2023-03-04T05:11:27;101397.31;;;11.08;55.62
50250;BME280;36133;42.522;27.456;2023-03-04T05:13:53;101571.47;;;11.86;54.81
50250;BME280;36133;42.522;27.456;2023-03-04T05:16:18;101242.13;;;10.64;53.76
50250;BME280;36133;42.522;27.456;2023-03-04T05:18:44;101551.13;;;12.60;52.92
50250;BME280;36133;42.522;27.456;2023-03-04T05:21:10;101510.22;;;11.54;54.42
50250;BME280;36133;42.522;27.456;2023-03-04T05:23:38;101354.63;;;10.32;55.55
50250;BME280;36133;42.522;27.456;2023-03-04T05:26:05;101550.66;;;11.31;55.83
50250;BME280;36133;42.522;27.456;2023-03-04T05:28:31;101555.38;;;12.54;53.42
50250;BME280;36133;42.522;27.456;2023-03-04T05:30:56;101554.25;;;12.18;54.49
50250;BME280;36133;42.522;27.456;2023-03-04T05:33:22;101396.28;;;11.88;52.48
50250;BME280;36133;42.522;27.456;2023-03-04T05:35:48;101473.47;;;12.52;52.35
50250;BME280;36133;42.522;27.456;2023-03-04T05:38:16;101422.19;;;12.05;52.00
50250;BME280;36133;42.522;27.456;2023-03-04T05:40:43;101569.53;;;12.42;53.54
50250;BME280;36133;42.522;27.456;2023-03-04T05:43:09;101447.63;;;11.18;54.82
50250;BME280;36133;42.522;27.456;2023-03-04T05:45:35;101523.81;;;11.29;56.22
50250;BME280;36133;42.522;27.456;2023-03-04T05:48:01;101404.84;;;10.09;57.37
50250;BME280;36133;42.522;27.456;2023-03-04T05:50:27;101495.44;;;11.01;56.35
50250;BME280;36133;42.522;27.456;2023-03-04T05:52:53;101583.94;;;11.23;57.19
50250;BME280;36133;42.522;27.456;2023-03-04T05:55:19;101523.28;;;11.34;56.30
50250;BME280;36133;42.522;27.456;2023-03-04T05:57:44;101350.72;;;10.35;56.39
50250;BME280;36133;42.522;27.456;2023-03-04T06:00:12;101493.09;;;10.90;56.66
50250;BME280;36133;42.522;27.456;2023-03-04T06:02:38;101508.16;;;11.56;55.72
50250;BME280;36133;42.522;27.456;2023-03-04T06:05:05;101453.53;;;11.60;55.25
50250;BME280;36133;42.522;27.456;2023-03-04T06:07:31;101470.94;;;11.66;54.95
50250;BME280;36133;42.522;27.456;2023-03-04T06:09:56;101327.94;;;10.05;56.89
50250;BME280;36133;42.522;27.456;2023-03-04T06:12:22;101540.94;;;11.61;56.13
50250;BME280;36133;42.522;27.456;2023-03-04T06:14:47;101354.44;;;11.36;53.71
50250;BME280;36133;42.522;27.456;2023-03-04T06:17:13;101529.72;;;12.19;54.13
50250;BME280;36133;42.522;27.456;2023-03-04T06:19:39;101337.81;;;12.39;51.42
50250;BME280;36133;42.522;27.456;2023-03-04T06:22:07;101575.22;;;13.83;51.19
50250;BME280;36133;42.522;27.456;2023-03-04T06:24:33;101383.31;;;12.58;50.50
50250;BME280;36133;42.522;27.456;2023-03-04T06:26:58;101396.34;;;13.07;49.30
50250;BME280;36133;42.522;27.456;2023-03-04T06:29:24;101485.06;;;13.87;49.63
50250;BME280;36133;42.522;27.456;2023-03-04T06:31:49;101454.91;;;14.82;46.80
50250;BME280;36133;42.522;27.456;2023-03-04T06:34:15;101469.53;;;15.09;46.43
50250;BME280;36133;42.522;27.456;2023-03-04T06:36:40;101479.13;;;15.33;45.75
50250;BME280;36133;42.522;27.456;2023-03-04T06:39:06;101566.19;;;15.61;45.61
50250;BME280;36133;42.522;27.456;2023-03-04T06:41:33;101583.66;;;14.75;48.08
50250;BME280;36133;42.522;27.456;2023-03-04T06:43:59;101411.84;;;14.15;47.39
50250;BME280;36133;42.522;27.456;2023-03-04T06:46:25;101561.22;;;17.07;43.82
50250;BME280;36133;42.522;27.456;2023-03-04T06:48:50;101566.25;;;17.03;43.52
50250;BME280;36133;42.522;27.456;2023-03-04T06:51:16;101574.03;;;17.19;43.22
50250;BME280;36133;42.522;27.456;2023-03-04T06:53:42;101576.53;;;17.74;41.44
50250;BME280;36133;42.522;27.456;2023-03-04T06:56:09;101552.97;;;18.31;40.96
50250;BME280;36133;42.522;27.456;2023-03-04T06:58:34;101571.28;;;17.72;41.29
50250;BME280;36133;42.522;27.456;2023-03-04T07:01:14;101583.13;;;18.11;41.15
50250;BME280;36133;42.522;27.456;2023-03-04T07:03:40;101543.66;;;16.28;43.54
50250;BME280;36133;42.522;27.456;2023-03-04T07:06:06;101499.84;;;15.06;45.74
50250;BME280;36133;42.522;27.456;2023-03-04T07:08:33;101410.06;;;15.82;44.12
50250;BME280;36133;42.522;27.456;2023-03-04T07:10:59;101316.44;;;16.09;42.52
50250;BME280;36133;42.522;27.456;2023-03-04T07:13:25;101391.78;;;15.63;43.17
50250;BME280;36133;42.522;27.456;2023-03-04T07:15:51;101341.34;;;13.58;47.06
50250;BME280;36133;42.522;27.456;2023-03-04T07:18:17;101445.19;;;13.88;47.83
50250;BME280;36133;42.522;27.456;2023-03-04T07:20:43;101334.28;;;13.63;47.11
50250;BME280;36133;42.522;27.456;2023-03-04T07:23:08;101316.06;;;14.28;46.09
50250;BME280;36133;42.522;27.456;2023-03-04T07:25:34;101549.31;;;15.44;46.48
50250;BME280;36133;42.522;27.456;2023-03-04T07:27:59;101392.53;;;14.46;46.49
50250;BME280;36133;42.522;27.456;2023-03-04T07:30:25;101566.06;;;16.17;45.28
50250;BME280;36133;42.522;27.456;2023-03-04T07:32:50;101532.00;;;15.24;46.56
50250;BME280;36133;42.522;27.456;2023-03-04T07:35:16;101355.19;;;15.98;43.86
50250;BME280;36133;42.522;27.456;2023-03-04T07:37:42;101487.44;;;16.01;45.11
50250;BME280;36133;42.522;27.456;2023-03-04T07:40:09;101377.38;;;13.07;50.01
50250;BME280;36133;42.522;27.456;2023-03-04T07:42:35;101549.69;;;13.33;52.14
50250;BME280;36133;42.522;27.456;2023-03-04T07:45:01;101374.47;;;12.65;51.38
50250;BME280;36133;42.522;27.456;2023-03-04T07:47:27;101469.09;;;13.77;50.66
50250;BME280;36133;42.522;27.456;2023-03-04T07:49:52;101530.75;;;13.25;51.90
50250;BME280;36133;42.522;27.456;2023-03-04T07:52:18;101414.34;;;13.74;49.88
50250;BME280;36133;42.522;27.456;2023-03-04T07:54:45;101340.53;;;12.39;51.43
50250;BME280;36133;42.522;27.456;2023-03-04T07:57:10;101315.50;;;12.37;50.00
50250;BME280;36133;42.522;27.456;2023-03-04T07:59:36;101285.97;;;12.27;49.85
50250;BME280;36133;42.522;27.456;2023-03-04T08:02:01;101337.28;;;12.88;49.33
50250;BME280;36133;42.522;27.456;2023-03-04T08:04:27;101509.91;;;15.06;46.18
50250;BME280;36133;42.522;27.456;2023-03-04T08:06:52;101589.88;;;14.32;48.44
50250;BME280;36133;42.522;27.456;2023-03-04T08:09:18;101496.50;;;14.55;46.88
50250;BME280;36133;42.522;27.456;2023-03-04T08:11:43;101394.06;;;13.91;46.49
50250;BME280;36133;42.522;27.456;2023-03-04T08:14:12;101512.56;;;14.78;46.85
50250;BME280;36133;42.522;27.456;2023-03-04T08:16:38;101497.88;;;14.93;46.32
50250;BME280;36133;42.522;27.456;2023-03-04T08:19:04;101452.72;;;15.27;45.41
50250;BME280;36133;42.522;27.456;2023-03-04T08:21:31;101517.19;;;16.02;44.02
50250;BME280;36133;42.522;27.456;2023-03-04T08:23:58;101449.75;;;16.18;42.95
50250;BME280;36133;42.522;27.456;2023-03-04T08:26:29;101535.84;;;16.73;43.20
50250;BME280;36133;42.522;27.456;2023-03-04T08:28:56;101526.19;;;17.23;42.30
50250;BME280;36133;42.522;27.456;2023-03-04T08:31:22;101505.09;;;17.70;41.27
50250;BME280;36133;42.522;27.456;2023-03-04T08:33:48;101562.78;;;18.45;39.98
50250;BME280;36133;42.522;27.456;2023-03-04T08:36:14;101453.91;;;15.59;44.30
50250;BME280;36133;42.522;27.456;2023-03-04T08:38:40;101307.28;;;15.30;43.46
50250;BME280;36133;42.522;27.456;2023-03-04T08:41:06;101493.38;;;17.50;41.20
50250;BME280;36133;42.522;27.456;2023-03-04T08:43:32;101565.00;;;16.99;42.10
50250;BME280;36133;42.522;27.456;2023-03-04T08:45:59;101529.25;;;15.87;44.04
50250;BME280;36133;42.522;27.456;2023-03-04T08:48:24;101378.13;;;15.08;44.06
50250;BME280;36133;42.522;27.456;2023-03-04T08:50:50;101559.16;;;15.45;45.39
50250;BME280;36133;42.522;27.456;2023-03-04T08:53:16;101537.25;;;15.95;44.75
50250;BME280;36133;42.522;27.456;2023-03-04T08:55:43;101468.19;;;16.22;43.93
50250;BME280;36133;42.522;27.456;2023-03-04T08:58:09;101400.13;;;16.68;41.83
50250;BME280;36133;42.522;27.456;2023-03-04T09:00:37;101537.47;;;16.61;43.88
50250;BME280;36133;42.522;27.456;2023-03-04T09:03:03;101541.22;;;16.66;43.83
50250;BME280;36133;42.522;27.456;2023-03-04T09:05:30;101413.72;;;16.35;43.31
50250;BME280;36133;42.522;27.456;2023-03-04T09:07:56;101375.97;;;16.92;41.04
50250;BME280;36133;42.522;27.456;2023-03-04T09:10:21;101460.06;;;16.55;42.99
50250;BME280;36133;42.522;27.456;2023-03-04T09:12:47;101303.44;;;15.85;42.79
50250;BME280;36133;42.522;27.456;2023-03-04T09:15:13;101447.47;;;17.20;41.95
50250;BME280;36133;42.522;27.456;2023-03-04T09:17:39;101487.53;;;17.26;41.68
50250;BME280;36133;42.522;27.456;2023-03-04T09:20:07;101479.78;;;16.57;43.68
50250;BME280;36133;42.522;27.456;2023-03-04T09:22:35;101515.81;;;16.39;44.47
50250;BME280;36133;42.522;27.456;2023-03-04T09:25:01;101437.94;;;15.97;44.41
50250;BME280;36133;42.522;27.456;2023-03-04T09:27:26;101513.97;;;16.66;44.00
50250;BME280;36133;42.522;27.456;2023-03-04T09:29:52;101384.50;;;15.83;44.42
50250;BME280;36133;42.522;27.456;2023-03-04T09:32:17;101361.25;;;15.80;44.21
50250;BME280;36133;42.522;27.456;2023-03-04T09:34:43;101415.22;;;16.78;42.79
50250;BME280;36133;42.522;27.456;2023-03-04T09:37:08;101445.88;;;17.57;41.80
50250;BME280;36133;42.522;27.456;2023-03-04T09:39:34;101211.50;;;16.00;42.11
50250;BME280;36133;42.522;27.456;2023-03-04T09:42:00;101439.19;;;19.29;38.81
50250;BME280;36133;42.522;27.456;2023-03-04T09:44:29;101113.66;;;16.57;39.72
50250;BME280;36133;42.522;27.456;2023-03-04T09:47:00;101478.31;;;18.62;40.08
50250;BME280;36133;42.522;27.456;2023-03-04T09:49:27;101358.97;;;16.96;41.42
50250;BME280;36133;42.522;27.456;2023-03-04T09:54:54;101343.72;;;18.35;38.95
50250;BME280;36133;42.522;27.456;2023-03-04T10:00:11;101346.22;;;16.51;42.89
50250;BME280;36133;42.522;27.456;2023-03-04T10:05:43;101405.13;;;16.45;43.14
50250;BME280;36133;42.522;27.456;2023-03-04T10:10:48;101427.56;;;16.93;43.28
50250;BME280;36133;42.522;27.456;2023-03-04T10:13:20;101397.91;;;17.68;41.55
50250;BME280;36133;42.522;27.456;2023-03-04T10:15:48;101343.09;;;16.14;43.91
50250;BME280;36133;42.522;27.456;2023-03-04T10:18:24;101266.38;;;16.17;43.15
50250;BME280;36133;42.522;27.456;2023-03-04T10:20:56;101424.81;;;17.07;43.06
50250;BME280;36133;42.522;27.456;2023-03-04T10:23:27;101400.66;;;17.68;42.06
50250;BME280;36133;42.522;27.456;2023-03-04T10:25:53;101388.84;;;17.29;42.43
50250;BME280;36133;42.522;27.456;2023-03-04T10:28:23;101303.41;;;17.36;41.31
50250;BME280;36133;42.522;27.456;2023-03-04T10:31:14;101405.69;;;18.41;40.05
50250;BME280;36133;42.522;27.456;2023-03-04T10:33:42;101299.81;;;19.10;38.55
50250;BME280;36133;42.522;27.456;2023-03-04T10:38:45;101294.63;;;19.01;38.16
50250;BME280;36133;42.522;27.456;2023-03-04T10:41:18;101369.28;;;20.70;36.53
50250;BME280;36133;42.522;27.456;2023-03-04T10:43:50;101334.84;;;20.74;35.59
50250;BME280;36133;42.522;27.456;2023-03-04T10:46:24;101328.63;;;20.67;36.42
50250;BME280;36133;42.522;27.456;2023-03-04T10:48:52;101332.00;;;22.74;33.69
50250;BME280;36133;42.522;27.456;2023-03-04T10:51:23;101269.94;;;22.83;32.58
50250;BME280;36133;42.522;27.456;2023-03-04T10:53:55;101254.56;;;24.64;29.84
50250;BME280;36133;42.522;27.456;2023-03-04T10:56:41;100981.41;;;22.26;30.04
50250;BME280;36133;42.522;27.456;2023-03-04T10:59:33;101329.97;;;24.33;30.16
50250;BME280;36133;42.522;27.456;2023-03-04T11:02:14;101208.78;;;21.53;32.95
50250;BME280;36133;42.522;27.456;2023-03-04T11:04:39;101305.44;;;21.67;33.96
50250;BME280;36133;42.522;27.456;2023-03-04T11:07:14;101244.75;;;19.78;36.16
50250;BME280;36133;42.522;27.456;2023-03-04T11:09:39;101266.88;;;18.61;38.54
50250;BME280;36133;42.522;27.456;2023-03-04T11:12:13;101341.84;;;18.97;39.13
50250;BME280;36133;42.522;27.456;2023-03-04T11:14:43;100982.47;;;16.47;39.73
50250;BME280;36133;42.522;27.456;2023-03-04T11:17:41;101337.13;;;18.67;39.95
50250;BME280;36133;42.522;27.456;2023-03-04T11:22:57;101265.75;;;20.07;37.24
50250;BME280;36133;42.522;27.456;2023-03-04T11:25:34;101308.34;;;22.39;33.95
50250;BME280;36133;42.522;27.456;2023-03-04T11:29:21;101319.22;;;20.63;36.09
50250;BME280;36133;42.522;27.456;2023-03-04T11:31:19;101311.56;;;21.69;35.20
50250;BME280;36133;42.522;27.456;2023-03-04T11:39:35;101295.72;;;20.67;35.62
50250;BME280;36133;42.522;27.456;2023-03-04T11:44:50;101265.84;;;22.86;31.28
50250;BME280;36133;42.522;27.456;2023-03-04T11:53:20;101302.00;;;18.21;39.24
50250;BME280;36133;42.522;27.456;2023-03-04T11:55:57;101293.91;;;18.94;38.31
50250;BME280;36133;42.522;27.456;2023-03-04T11:58:37;101296.06;;;19.41;37.68
50250;BME280;36133;42.522;27.456;2023-03-04T12:01:34;101289.66;;;18.37;39.45
50250;BME280;36133;42.522;27.456;2023-03-04T12:04:44;101150.59;;;17.85;38.32
50250;BME280;36133;42.522;27.456;2023-03-04T12:13:18;101283.16;;;19.59;37.52
50250;BME280;36133;42.522;27.456;2023-03-04T12:15:56;101161.38;;;18.17;38.48
50250;BME280;36133;42.522;27.456;2023-03-04T12:26:41;101272.91;;;20.08;36.65
50250;BME280;36133;42.522;27.456;2023-03-04T12:40:40;101259.63;;;19.40;38.02
50250;BME280;36133;42.522;27.456;2023-03-04T12:48:35;101245.16;;;20.28;35.95
50250;BME280;36133;42.522;27.456;2023-03-04T12:57:20;101238.31;;;19.84;37.38
50250;BME280;36133;42.522;27.456;2023-03-04T13:05:23;101243.03;;;18.50;39.81
50250;BME280;36133;42.522;27.456;2023-03-04T13:10:31;101250.91;;;17.65;42.51
50250;BME280;36133;42.522;27.456;2023-03-04T13:12:58;101136.72;;;17.31;42.48
50250;BME280;36133;42.522;27.456;2023-03-04T13:18:12;101053.88;;;18.41;39.82
50250;BME280;36133;42.522;27.456;2023-03-04T13:21:25;101227.59;;;19.41;39.99
50250;BME280;36133;42.522;27.456;2023-03-04T13:23:50;101163.69;;;19.05;40.02
50250;BME280;36133;42.522;27.456;2023-03-04T13:26:36;101234.53;;;19.25;40.92
50250;BME280;36133;42.522;27.456;2023-03-04T13:32:03;101165.72;;;18.06;43.23
50250;BME280;36133;42.522;27.456;2023-03-04T13:34:48;100852.88;;;15.94;43.78
50250;BME280;36133;42.522;27.456;2023-03-04T13:37:33;101195.53;;;18.99;42.34
50250;BME280;36133;42.522;27.456;2023-03-04T13:42:51;101185.75;;;18.37;43.00
50250;BME280;36133;42.522;27.456;2023-03-04T13:45:34;101182.22;;;18.55;42.51
50250;BME280;36133;42.522;27.456;2023-03-04T13:48:03;101181.00;;;18.32;43.08
50250;BME280;36133;42.522;27.456;2023-03-04T13:50:36;101092.56;;;19.17;40.29
50250;BME280;36133;42.522;27.456;2023-03-04T13:53:36;101131.44;;;20.07;38.72
50250;BME280;36133;42.522;27.456;2023-03-04T13:56:32;101205.75;;;20.69;38.81
50250;BME280;36133;42.522;27.456;2023-03-04T14:01:51;101193.66;;;20.42;38.17
50250;BME280;36133;42.522;27.456;2023-03-04T14:04:36;101181.47;;;23.50;33.70
50250;BME280;36133;42.522;27.456;2023-03-04T14:07:34;101157.84;;;25.22;31.11
50250;BME280;36133;42.522;27.456;2023-03-04T14:10:02;101177.47;;;25.30;30.39
50250;BME280;36133;42.522;27.456;2023-03-04T14:12:35;100968.53;;;25.50;28.31
50250;BME280;36133;42.522;27.456;2023-03-04T14:15:22;101153.84;;;26.55;28.58
50250;BME280;36133;42.522;27.456;2023-03-04T14:17:53;101148.38;;;26.94;28.30
50250;BME280;36133;42.522;27.456;2023-03-04T14:23:02;101154.72;;;24.88;30.96
50250;BME280;36133;42.522;27.456;2023-03-04T14:25:33;101141.19;;;23.49;32.52